KPHL/PHL METAR and TAF weather

Enter ICAO airport designator
Station Type Date Time Source
KPHL METAR 2020/09/22 18:54 UTC NOAA

KPHL 221854Z 30007KT 10SM FEW300 22/01 A3003 RMK AO2 SLP170 T02220011 $


Station Type Date Time Source
KPHL Decoded METAR 2020/09/22 18:54 UTC NOAA

PHILADELPHIA INTERNATIONAL AIRPT, PA, United States (KPHL) 39-52N 075-14W 18M
Sep 22, 2020 - 02:54 PM EDT / 2020.09.22 1854 UTC
Wind: from the WNW (300 degrees) at 8 MPH (7 KT):0
Visibility: 10 mile(s):0
Sky conditions: mostly clear
Temperature: 72.0 F (22.2 C)
Dew Point: 34.0 F (1.1 C)
Relative Humidity: 24%
Pressure (altimeter): 30.03 in. Hg (1016 hPa)
ob: KPHL 221854Z 30007KT 10SM FEW300 22/01 A3003 RMK AO2 SLP170 T02220011
cycle: 19

Station Type Date Time Source
KPHL TAF 2020/09/22 18:24 UTC NOAA

TAF KPHL 221720Z 2218/2324 33012G19KT P6SM FEW250
FM222200 30008KT P6SM FEW250
FM231500 28012G19KT P6SM SKC
FM232200 29009KT P6SM SKC

Example: see airport list